SAS903 ESSA-KEWR
Flight info
| Callsign | SAS903 |
|---|---|
| Flight time | N/A |
| Altitude | 24000 |
| Route | KOGAV PABVU IPTON/M084F380 62N010W/M084F400 61N020W 60N030W 58N040W 53N050W SAXAN/N0488F400 TOPPS BEEKN Q480 KYLOH BAF IGN FLOSI FLOSI4 |
| Aircraft | A359/H-SDE2E3GHIJ3J4J5LM1ORWXY/LB1D1 |
Departure
| Time | N/A |
|---|---|
| Airport | Stockholm-Arlanda Airport (ESSA) |
Arrival
| Time | 2026-04-25 16:08 |
|---|---|
| Airport | Newark Liberty International Airport (KEWR) |
| Time | Latitude | Longitude | Altitude | Speed | Heading |
|---|---|---|---|---|---|
| 2026-04-25 15:48 | 41.43242 | -74.38387 | 6997 ft | 271 kts | 199° |
| 2026-04-25 15:48 | 41.41429 | -74.39087 | 6971 ft | 272 kts | 199° |
| 2026-04-25 15:48 | 41.39621 | -74.39820 | 6982 ft | 272 kts | 200° |
| 2026-04-25 15:48 | 41.37814 | -74.40574 | 6948 ft | 271 kts | 200° |
| 2026-04-25 15:49 | 41.36013 | -74.41335 | 6697 ft | 272 kts | 199° |
| 2026-04-25 15:49 | 41.34210 | -74.42102 | 6240 ft | 272 kts | 199° |
| 2026-04-25 15:49 | 41.32433 | -74.42865 | 6005 ft | 263 kts | 198° |
| 2026-04-25 15:49 | 41.30726 | -74.43595 | 5984 ft | 256 kts | 198° |
| 2026-04-25 15:50 | 41.29018 | -74.44325 | 5980 ft | 259 kts | 198° |
| 2026-04-25 15:50 | 41.27305 | -74.45063 | 5991 ft | 258 kts | 199° |
| 2026-04-25 15:50 | 41.25615 | -74.45785 | 5991 ft | 258 kts | 198° |
| 2026-04-25 15:50 | 41.23899 | -74.46518 | 5985 ft | 260 kts | 199° |
| 2026-04-25 15:51 | 41.22177 | -74.47253 | 5985 ft | 259 kts | 199° |
| 2026-04-25 15:51 | 41.21038 | -74.47739 | 5982 ft | 259 kts | 199° |
| 2026-04-25 15:51 | 41.18745 | -74.48717 | 5981 ft | 259 kts | 198° |
| 2026-04-25 15:51 | 41.17024 | -74.49452 | 5981 ft | 259 kts | 198° |
| 2026-04-25 15:52 | 41.15310 | -74.50184 | 5996 ft | 257 kts | 199° |
| 2026-04-25 15:52 | 41.13601 | -74.50913 | 5979 ft | 258 kts | 199° |
| 2026-04-25 15:52 | 41.11889 | -74.51644 | 5989 ft | 259 kts | 200° |
| 2026-04-25 15:52 | 41.10172 | -74.52375 | 5989 ft | 259 kts | 200° |
| 2026-04-25 15:53 | 41.08483 | -74.53093 | 5989 ft | 259 kts | 200° |
| 2026-04-25 15:53 | 41.06745 | -74.53743 | 5985 ft | 261 kts | 193° |
| 2026-04-25 15:53 | 41.04937 | -74.54027 | 5973 ft | 261 kts | 187° |
| 2026-04-25 15:53 | 41.03124 | -74.54193 | 5977 ft | 260 kts | 186° |
| 2026-04-25 15:54 | 41.01313 | -74.54351 | 5982 ft | 261 kts | 186° |
| 2026-04-25 15:54 | 40.99494 | -74.54512 | 5980 ft | 262 kts | 186° |
| 2026-04-25 15:54 | 40.97678 | -74.54675 | 5989 ft | 261 kts | 187° |
| 2026-04-25 15:54 | 40.95868 | -74.54840 | 5991 ft | 261 kts | 186° |
| 2026-04-25 15:55 | 40.94054 | -74.55006 | 5991 ft | 261 kts | 186° |
| 2026-04-25 15:55 | 40.92242 | -74.55172 | 5995 ft | 261 kts | 187° |
| 2026-04-25 15:55 | 40.90425 | -74.55339 | 5997 ft | 260 kts | 187° |
| 2026-04-25 15:55 | 40.88644 | -74.55503 | 5998 ft | 260 kts | 187° |
| 2026-04-25 15:56 | 40.86832 | -74.55671 | 5910 ft | 262 kts | 187° |
| 2026-04-25 15:56 | 40.85022 | -74.55838 | 5609 ft | 259 kts | 186° |
| 2026-04-25 15:56 | 40.83240 | -74.55977 | 5247 ft | 255 kts | 183° |
| 2026-04-25 15:56 | 40.81490 | -74.55946 | 5039 ft | 249 kts | 179° |
| 2026-04-25 15:57 | 40.79749 | -74.55855 | 5016 ft | 251 kts | 178° |
| 2026-04-25 15:57 | 40.77997 | -74.55758 | 4956 ft | 250 kts | 178° |
| 2026-04-25 15:57 | 40.76261 | -74.55662 | 4968 ft | 249 kts | 179° |
| 2026-04-25 15:57 | 40.74523 | -74.55570 | 4967 ft | 250 kts | 179° |
| 2026-04-25 15:58 | 40.72799 | -74.55478 | 4962 ft | 252 kts | 179° |
| 2026-04-25 15:58 | 40.71040 | -74.55381 | 4964 ft | 252 kts | 180° |
| 2026-04-25 15:58 | 40.69287 | -74.55288 | 4967 ft | 251 kts | 180° |
| 2026-04-25 15:58 | 40.67542 | -74.55195 | 4967 ft | 250 kts | 180° |
| 2026-04-25 15:59 | 40.65795 | -74.55068 | 4972 ft | 252 kts | 176° |
| 2026-04-25 15:59 | 40.64085 | -74.54681 | 4965 ft | 252 kts | 171° |
| 2026-04-25 15:59 | 40.62347 | -74.54179 | 4971 ft | 252 kts | 170° |
| 2026-04-25 15:59 | 40.60654 | -74.53680 | 4968 ft | 252 kts | 170° |
| 2026-04-25 16:00 | 40.58938 | -74.53186 | 4967 ft | 252 kts | 170° |
| 2026-04-25 16:00 | 40.58359 | -74.53022 | 4966 ft | 252 kts | 170° |
| 2026-04-25 16:00 | 40.55500 | -74.52214 | 4967 ft | 253 kts | 170° |
| 2026-04-25 16:00 | 40.53831 | -74.51493 | 4961 ft | 250 kts | 153° |
| 2026-04-25 16:01 | 40.52628 | -74.49930 | 4984 ft | 244 kts | 126° |
| 2026-04-25 16:01 | 40.51847 | -74.47943 | 4980 ft | 242 kts | 118° |
| 2026-04-25 16:01 | 40.51172 | -74.45950 | 5002 ft | 238 kts | 118° |
| 2026-04-25 16:01 | 40.50519 | -74.43956 | 4840 ft | 237 kts | 117° |
| 2026-04-25 16:02 | 40.49866 | -74.41980 | 4550 ft | 233 kts | 118° |
| 2026-04-25 16:02 | 40.49227 | -74.40038 | 4282 ft | 230 kts | 117° |
| 2026-04-25 16:02 | 40.48592 | -74.38117 | 3988 ft | 227 kts | 117° |
| 2026-04-25 16:02 | 40.47970 | -74.36239 | 3650 ft | 227 kts | 114° |
| 2026-04-25 16:03 | 40.47800 | -74.34194 | 3295 ft | 230 kts | 83° |
| 2026-04-25 16:03 | 40.48437 | -74.32268 | 3052 ft | 229 kts | 61° |
| 2026-04-25 16:03 | 40.49409 | -74.30657 | 3013 ft | 224 kts | 52° |
| 2026-04-25 16:03 | 40.50481 | -74.29169 | 3015 ft | 224 kts | 52° |
| 2026-04-25 16:04 | 40.51587 | -74.27714 | 3013 ft | 225 kts | 49° |
| 2026-04-25 16:04 | 40.52730 | -74.26346 | 3009 ft | 216 kts | 46° |
| 2026-04-25 16:04 | 40.53885 | -74.25193 | 3013 ft | 211 kts | 34° |
| 2026-04-25 16:04 | 40.55260 | -74.24425 | 2970 ft | 219 kts | 23° |
| 2026-04-25 16:05 | 40.56707 | -74.23846 | 2628 ft | 215 kts | 21° |
| 2026-04-25 16:05 | 40.58122 | -74.23324 | 2280 ft | 204 kts | 21° |
| 2026-04-25 16:05 | 40.60587 | -74.22319 | 1896 ft | 169 kts | 28° |
| 2026-04-25 16:06 | 40.61606 | -74.21673 | 1570 ft | 158 kts | 37° |
| 2026-04-25 16:06 | 40.62500 | -74.20916 | 1342 ft | 147 kts | 41° |
| 2026-04-25 16:06 | 40.63411 | -74.20311 | 1099 ft | 148 kts | 31° |
| 2026-04-25 16:06 | 40.64310 | -74.19705 | 789 ft | 141 kts | 36° |
| 2026-04-25 16:07 | 40.65152 | -74.19076 | 592 ft | 141 kts | 34° |
| 2026-04-25 16:07 | 40.65443 | -74.18877 | 528 ft | 137 kts | 32° |
| 2026-04-25 16:07 | 40.66854 | -74.17998 | 328 ft | 135 kts | 32° |
| 2026-04-25 16:07 | 40.67710 | -74.17453 | 112 ft | 138 kts | 32° |
| 2026-04-25 16:08 | 40.68551 | -74.16916 | 31 ft | 124 kts | 28° |
| 2026-04-25 16:08 | 40.69103 | -74.16567 | 30 ft | 64 kts | 25° |
| 2026-04-25 16:08 | 40.69362 | -74.16444 | 32 ft | 27 kts | 1° |
| 2026-04-25 16:08 | 40.69475 | -74.16456 | 30 ft | 12 kts | 354° |
| 2026-04-25 16:09 | 40.69553 | -74.16467 | 27 ft | 3 kts | 354° |
| 2026-04-25 16:09 | 40.69568 | -74.16469 | 27 ft | 3 kts | 353° |
| 2026-04-25 16:09 | 40.69611 | -74.16522 | 31 ft | 16 kts | 300° |
| 2026-04-25 16:09 | 40.69656 | -74.16639 | 26 ft | 13 kts | 296° |
| 2026-04-25 16:10 | 40.69678 | -74.16699 | 30 ft | 0 kts | 296° |
| 2026-04-25 16:10 | 40.69678 | -74.16700 | 30 ft | 1 kts | 296° |
| 2026-04-25 16:10 | 40.69680 | -74.16704 | 30 ft | 0 kts | 296° |
| 2026-04-25 16:10 | 40.69677 | -74.16764 | 28 ft | 10 kts | 257° |
| 2026-04-25 16:11 | 40.69658 | -74.16858 | 26 ft | 11 kts | 246° |
| 2026-04-25 16:11 | 40.69597 | -74.16917 | 27 ft | 11 kts | 205° |
| 2026-04-25 16:11 | 40.69546 | -74.16966 | 29 ft | 7 kts | 243° |
| 2026-04-25 16:11 | 40.69533 | -74.17022 | 27 ft | 7 kts | 253° |
| 2026-04-25 16:12 | 40.69505 | -74.17066 | 30 ft | 6 kts | 201° |
| 2026-04-25 16:12 | 40.69452 | -74.17070 | 27 ft | 13 kts | 179° |
| 2026-04-25 16:12 | 40.69346 | -74.17083 | 27 ft | 16 kts | 194° |
| 2026-04-25 16:12 | 40.69277 | -74.17120 | 28 ft | 16 kts | 206° |
| 2026-04-25 16:13 | 40.69131 | -74.17212 | 26 ft | 21 kts | 205° |
| 2026-04-25 16:13 | 40.69040 | -74.17279 | 29 ft | 9 kts | 233° |
| 2026-04-25 16:13 | 40.69046 | -74.17348 | 28 ft | 8 kts | 290° |
| 2026-04-25 16:13 | 40.69053 | -74.17372 | 30 ft | 0 kts | 290° |
| 2026-04-25 16:14 | 40.69067 | -74.17374 | 28 ft | 4 kts | 6° |
| 2026-04-25 16:14 | 40.69122 | -74.17363 | 26 ft | 9 kts | 15° |
| 2026-04-25 16:14 | 40.69135 | -74.17363 | 26 ft | 0 kts | 351° |
| 2026-04-25 16:14 | 40.69139 | -74.17365 | 29 ft | 0 kts | 342° |
| 2026-04-25 16:15 | 40.69141 | -74.17368 | 29 ft | 0 kts | 330° |
| 2026-04-25 16:15 | 40.69142 | -74.17369 | 29 ft | 0 kts | 325° |